createdAt,value
2023-12-14T00:02:28.674Z,68.01
2023-12-14T00:04:55.333Z,67.39
2023-12-14T00:07:21.978Z,67.49
2023-12-14T00:09:48.762Z,67.90
2023-12-14T00:12:15.444Z,67.33
2023-12-14T00:14:42.182Z,67.71
2023-12-14T00:17:08.890Z,67.88
2023-12-14T00:19:35.578Z,67.31
2023-12-14T00:22:02.515Z,68.10
2023-12-14T00:24:29.172Z,67.89
2023-12-14T00:26:55.793Z,67.86
2023-12-14T00:29:25.195Z,68.09
2023-12-14T00:31:54.490Z,67.38
2023-12-14T00:34:21.121Z,67.77
2023-12-14T00:36:47.947Z,67.83
2023-12-14T00:39:14.650Z,67.75
2023-12-14T00:41:43.452Z,67.77
2023-12-14T00:44:10.197Z,67.87
2023-12-14T00:46:37.061Z,67.57
2023-12-14T00:49:03.737Z,67.67
2023-12-14T00:51:32.622Z,67.81
2023-12-14T00:54:01.628Z,68.08
2023-12-14T00:56:30.585Z,67.50
2023-12-14T00:58:59.647Z,67.64
2023-12-14T01:01:26.331Z,67.95
2023-12-14T01:03:55.371Z,67.48
2023-12-14T01:06:22.047Z,67.62
2023-12-14T01:08:51.169Z,67.27
2023-12-14T01:11:20.300Z,67.39
2023-12-14T01:13:46.962Z,67.99
2023-12-14T01:16:15.985Z,67.71
2023-12-14T01:18:42.648Z,67.66
2023-12-14T01:21:09.305Z,68.02
2023-12-14T01:23:35.973Z,68.21
2023-12-14T01:26:02.704Z,67.76
2023-12-14T01:28:29.345Z,67.71
2023-12-14T01:30:58.296Z,67.29
2023-12-14T01:33:25.287Z,67.88
2023-12-14T01:35:54.135Z,67.58
2023-12-14T01:38:22.996Z,67.47
2023-12-14T01:40:49.621Z,67.93
2023-12-14T01:43:18.718Z,67.77
2023-12-14T01:45:48.332Z,67.73
2023-12-14T01:48:15.078Z,68.17
2023-12-14T01:50:44.153Z,67.37
2023-12-14T01:53:13.166Z,67.85
2023-12-14T01:55:40.089Z,67.74
2023-12-14T01:58:06.799Z,67.55
2023-12-14T02:00:47.152Z,67.84
2023-12-14T02:03:13.886Z,67.32
2023-12-14T02:05:40.537Z,67.63
2023-12-14T02:08:07.227Z,67.40
2023-12-14T02:10:33.958Z,67.69
2023-12-14T02:13:05.860Z,68.08
2023-12-14T02:15:34.812Z,67.98
2023-12-14T02:18:01.530Z,67.47
2023-12-14T02:20:28.257Z,68.14
2023-12-14T02:22:54.896Z,67.97
2023-12-14T02:25:25.098Z,67.50
2023-12-14T02:27:52.787Z,67.58
2023-12-14T02:30:21.798Z,67.43
2023-12-14T02:32:48.576Z,67.82
2023-12-14T02:35:15.290Z,68.24
2023-12-14T02:37:42.017Z,68.01
2023-12-14T02:40:09.557Z,67.71
2023-12-14T02:42:36.716Z,67.63
2023-12-14T02:45:04.606Z,68.00
2023-12-14T02:47:31.306Z,67.77
2023-12-14T02:49:58.068Z,67.50
2023-12-14T02:52:24.931Z,67.66
2023-12-14T02:54:51.546Z,67.81
2023-12-14T02:57:18.323Z,68.10
2023-12-14T02:59:44.985Z,67.47
2023-12-14T03:02:11.776Z,67.62
2023-12-14T03:04:44.170Z,67.78
2023-12-14T03:07:10.854Z,67.50
2023-12-14T03:09:45.330Z,68.14
2023-12-14T03:12:12.341Z,67.74
2023-12-14T03:14:43.732Z,68.07
2023-12-14T03:17:13.872Z,67.59
2023-12-14T03:19:42.310Z,68.25
2023-12-14T03:22:16.797Z,67.85
2023-12-14T03:24:43.746Z,67.80
2023-12-14T03:27:10.337Z,68.08
2023-12-14T03:29:36.934Z,67.69
2023-12-14T03:32:03.777Z,67.53
2023-12-14T03:34:32.655Z,68.20
2023-12-14T03:37:01.589Z,68.17
2023-12-14T03:39:28.636Z,68.20
2023-12-14T03:41:58.257Z,68.19
2023-12-14T03:44:25.261Z,67.69
2023-12-14T03:46:52.263Z,68.27
2023-12-14T03:49:18.970Z,67.72
2023-12-14T03:51:45.568Z,68.44
2023-12-14T03:54:12.304Z,67.89
2023-12-14T03:56:38.927Z,68.43
2023-12-14T03:59:05.589Z,68.22
2023-12-14T04:01:34.740Z,68.15
2023-12-14T04:04:01.405Z,67.82
2023-12-14T04:06:30.484Z,67.79
2023-12-14T04:08:57.188Z,68.18
2023-12-14T04:11:23.807Z,68.69
2023-12-14T04:13:51.896Z,68.17
2023-12-14T04:16:22.793Z,68.12
2023-12-14T04:18:53.457Z,68.24
2023-12-14T04:21:20.181Z,67.90
2023-12-14T04:23:46.986Z,67.85
2023-12-14T04:26:15.421Z,68.21
2023-12-14T04:28:45.797Z,68.19
2023-12-14T04:31:12.530Z,68.05
2023-12-14T04:33:39.210Z,67.96
2023-12-14T04:36:06.055Z,68.63
2023-12-14T04:38:32.627Z,68.75
2023-12-14T04:40:59.298Z,68.12
2023-12-14T04:43:25.968Z,68.08
2023-12-14T04:45:52.569Z,68.13
2023-12-14T04:48:19.283Z,68.07
2023-12-14T04:50:45.987Z,68.85
2023-12-14T04:53:12.650Z,68.38
2023-12-14T04:55:39.316Z,68.48
2023-12-14T04:58:06.009Z,68.46
2023-12-14T05:00:32.697Z,68.25
2023-12-14T05:02:59.323Z,68.29
2023-12-14T05:05:26.119Z,68.72
2023-12-14T05:07:52.775Z,68.44
2023-12-14T05:10:19.395Z,68.35
2023-12-14T05:12:45.994Z,68.77
2023-12-14T05:15:14.838Z,68.87
2023-12-14T05:17:41.698Z,69.15
2023-12-14T05:20:11.824Z,68.57
2023-12-14T05:22:38.736Z,68.28
2023-12-14T05:25:05.829Z,69.18
2023-12-14T05:27:32.550Z,68.59
2023-12-14T05:29:59.196Z,68.91
2023-12-14T05:32:28.248Z,68.85
2023-12-14T05:34:54.916Z,69.18
2023-12-14T05:37:21.547Z,68.45
2023-12-14T05:39:48.243Z,68.41
2023-12-14T05:42:18.296Z,69.22
2023-12-14T05:44:46.238Z,68.65
2023-12-14T05:47:12.935Z,69.19
2023-12-14T05:49:43.930Z,68.56
2023-12-14T05:52:11.282Z,68.49
2023-12-14T05:54:40.982Z,67.98
2023-12-14T05:57:10.060Z,67.23
2023-12-14T05:59:36.757Z,66.51
2023-12-14T06:02:03.731Z,65.95
2023-12-14T06:04:30.754Z,65.00
2023-12-14T06:06:57.757Z,64.36
2023-12-14T06:09:30.400Z,63.68
2023-12-14T06:11:57.023Z,62.73
2023-12-14T06:14:23.800Z,62.37
2023-12-14T06:16:50.424Z,61.94
2023-12-14T06:19:17.178Z,61.45
2023-12-14T06:21:46.186Z,61.08
2023-12-14T06:24:12.861Z,60.55
2023-12-14T06:26:45.416Z,60.48
2023-12-14T06:29:12.961Z,59.77
2023-12-14T06:31:40.205Z,59.99
2023-12-14T06:34:09.812Z,59.97
2023-12-14T06:36:36.619Z,60.07
2023-12-14T06:39:06.086Z,60.07
2023-12-14T06:41:36.076Z,60.12
2023-12-14T06:44:02.753Z,60.31
2023-12-14T06:46:31.615Z,60.60
2023-12-14T06:48:58.411Z,60.58
2023-12-14T06:51:25.555Z,60.72
2023-12-14T06:53:54.543Z,61.06
2023-12-14T06:56:21.197Z,61.36
2023-12-14T06:58:50.858Z,61.38
2023-12-14T07:01:21.224Z,61.37
2023-12-14T07:03:49.205Z,62.02
2023-12-14T07:06:19.273Z,61.77
2023-12-14T07:08:46.719Z,62.00
2023-12-14T07:11:13.618Z,62.66
2023-12-14T07:13:43.279Z,62.84
2023-12-14T07:16:13.016Z,62.71
2023-12-14T07:18:41.322Z,62.67
2023-12-14T07:21:09.096Z,62.75
2023-12-14T07:23:38.629Z,63.39
2023-12-14T07:26:07.138Z,62.99
2023-12-14T07:28:35.004Z,63.71
2023-12-14T07:31:01.737Z,63.77
2023-12-14T07:33:28.511Z,62.91
2023-12-14T07:35:55.608Z,62.78
2023-12-14T07:38:22.387Z,62.61
2023-12-14T07:40:51.295Z,63.78
2023-12-14T07:43:18.224Z,63.28
2023-12-14T07:45:45.511Z,64.21
2023-12-14T07:48:12.287Z,63.98
2023-12-14T07:50:39.433Z,64.25
2023-12-14T07:53:06.233Z,64.65
2023-12-14T07:55:32.966Z,64.54
2023-12-14T07:57:59.588Z,64.20
2023-12-14T08:00:26.685Z,64.74
2023-12-14T08:02:53.300Z,64.91
2023-12-14T08:05:22.754Z,64.18
2023-12-14T08:07:53.685Z,64.40
2023-12-14T08:10:20.749Z,64.14
2023-12-14T08:12:49.617Z,64.06
2023-12-14T08:15:16.396Z,64.08
2023-12-14T08:17:43.569Z,63.27
2023-12-14T08:20:12.869Z,63.90
2023-12-14T08:22:48.179Z,63.81
2023-12-14T08:25:15.889Z,63.64
2023-12-14T08:27:43.502Z,63.77
2023-12-14T08:30:13.862Z,63.97
2023-12-14T08:32:41.109Z,64.77
2023-12-14T08:35:08.463Z,64.48
2023-12-14T08:37:37.076Z,64.39
2023-12-14T08:40:06.885Z,64.63
2023-12-14T08:42:33.678Z,64.44
2023-12-14T08:45:00.480Z,64.61
2023-12-14T08:47:27.292Z,64.47
2023-12-14T08:49:54.463Z,64.73
2023-12-14T08:52:21.193Z,65.22
2023-12-14T08:54:48.124Z,65.72
2023-12-14T08:57:14.826Z,65.83
2023-12-14T08:59:44.793Z,65.98
2023-12-14T09:02:11.935Z,66.00
2023-12-14T09:04:39.304Z,65.07
2023-12-14T09:07:05.933Z,65.12
2023-12-14T09:09:35.120Z,65.04
2023-12-14T09:12:01.803Z,64.34
2023-12-14T09:14:30.961Z,63.61
2023-12-14T09:17:02.383Z,63.20
2023-12-14T09:19:31.153Z,62.46
2023-12-14T09:22:02.777Z,61.86
2023-12-14T09:24:30.142Z,61.35
2023-12-14T09:26:56.873Z,60.71
2023-12-14T09:29:25.925Z,60.26
2023-12-14T09:31:52.850Z,59.81
2023-12-14T09:34:19.747Z,59.65
2023-12-14T09:36:46.492Z,59.44
2023-12-14T09:39:13.115Z,59.17
2023-12-14T09:41:40.514Z,58.60
2023-12-14T09:44:08.227Z,58.46
2023-12-14T09:46:38.455Z,58.28
2023-12-14T09:49:08.608Z,57.99
2023-12-14T09:51:36.149Z,58.04
2023-12-14T09:54:02.780Z,57.78
2023-12-14T09:56:29.500Z,57.51
2023-12-14T09:58:56.241Z,57.63
2023-12-14T10:01:28.224Z,57.51
2023-12-14T10:04:11.162Z,57.27
2023-12-14T10:06:41.424Z,57.08
2023-12-14T10:09:14.648Z,56.66
2023-12-14T10:11:41.981Z,56.77
2023-12-14T10:14:29.008Z,56.65
2023-12-14T10:17:02.693Z,56.76
2023-12-14T10:19:30.489Z,56.19
2023-12-14T10:21:59.643Z,56.42
2023-12-14T10:24:26.662Z,56.66
2023-12-14T10:26:53.485Z,56.18
2023-12-14T10:29:20.322Z,56.19
2023-12-14T10:31:49.539Z,56.23
2023-12-14T10:34:16.474Z,55.94
2023-12-14T10:36:46.669Z,55.83
2023-12-14T10:39:16.883Z,56.35
2023-12-14T10:41:54.793Z,55.88
2023-12-14T10:44:47.654Z,55.95
2023-12-14T10:47:16.891Z,56.09
2023-12-14T10:49:53.462Z,56.06
2023-12-14T10:52:24.198Z,56.01
2023-12-14T10:54:59.583Z,55.47
2023-12-14T10:57:26.373Z,55.50
2023-12-14T11:00:00.940Z,55.63
2023-12-14T11:02:27.725Z,56.05
2023-12-14T11:05:10.767Z,55.84
2023-12-14T11:07:58.921Z,55.69
2023-12-14T11:10:37.331Z,55.29
2023-12-14T11:13:06.992Z,55.65
2023-12-14T11:15:37.150Z,55.58
2023-12-14T11:18:10.099Z,55.50
2023-12-14T11:20:46.440Z,55.10
2023-12-14T11:23:33.076Z,55.17
2023-12-14T11:26:04.680Z,55.05
2023-12-14T11:28:33.164Z,55.22
2023-12-14T11:31:00.123Z,55.32
2023-12-14T11:33:42.479Z,55.05
2023-12-14T11:36:13.365Z,54.94
2023-12-14T11:38:40.389Z,54.96
2023-12-14T11:41:07.061Z,54.89
2023-12-14T11:43:43.724Z,54.75
2023-12-14T11:46:15.142Z,54.65
2023-12-14T11:48:42.297Z,54.85
2023-12-14T11:51:12.540Z,54.88
2023-12-14T11:53:43.592Z,54.61
2023-12-14T11:56:10.630Z,54.84
2023-12-14T11:58:38.031Z,54.98
2023-12-14T12:01:19.694Z,54.82
2023-12-14T12:03:51.438Z,54.96
2023-12-14T12:06:31.958Z,55.74
2023-12-14T12:08:58.848Z,55.64
2023-12-14T12:11:31.569Z,56.42
2023-12-14T12:14:01.194Z,56.51
2023-12-14T12:16:27.886Z,56.70
2023-12-14T12:18:56.883Z,56.97
2023-12-14T12:21:26.410Z,57.46
2023-12-14T12:23:53.233Z,58.04
2023-12-14T12:26:22.036Z,58.00
2023-12-14T12:28:50.997Z,58.60
2023-12-14T12:31:17.854Z,58.50
2023-12-14T12:33:44.598Z,58.74
2023-12-14T12:36:11.840Z,59.20
2023-12-14T12:38:41.742Z,59.59
2023-12-14T12:41:08.706Z,59.88
2023-12-14T12:43:35.424Z,59.77
2023-12-14T12:46:02.065Z,60.08
2023-12-14T12:48:28.993Z,60.37
2023-12-14T12:50:55.973Z,60.58
2023-12-14T12:53:22.972Z,61.05
2023-12-14T12:55:49.688Z,61.25
2023-12-14T12:58:16.537Z,61.79
2023-12-14T13:00:43.197Z,61.47
2023-12-14T13:03:14.056Z,63.17
2023-12-14T13:05:40.859Z,63.92
2023-12-14T13:08:07.926Z,64.13
2023-12-14T13:10:34.719Z,64.47
2023-12-14T13:13:06.145Z,64.38
2023-12-14T13:15:36.423Z,64.35
2023-12-14T13:18:04.003Z,64.55
2023-12-14T13:20:30.984Z,64.49
2023-12-14T13:23:00.067Z,64.58
2023-12-14T13:25:27.683Z,64.63
2023-12-14T13:27:56.806Z,64.81
2023-12-14T13:30:24.406Z,64.97
2023-12-14T13:32:55.145Z,64.83
2023-12-14T13:35:23.524Z,65.13
2023-12-14T13:37:50.678Z,64.94
2023-12-14T13:40:19.883Z,65.11
2023-12-14T13:42:54.903Z,65.33
2023-12-14T13:45:31.669Z,65.32
2023-12-14T13:47:59.765Z,65.34
2023-12-14T13:50:29.004Z,65.38
2023-12-14T13:52:56.262Z,65.49
2023-12-14T13:55:23.252Z,65.56
2023-12-14T13:57:49.957Z,65.74
2023-12-14T14:00:17.606Z,65.70
2023-12-14T14:02:46.835Z,65.74
2023-12-14T14:05:13.667Z,65.60
2023-12-14T14:07:40.428Z,65.89
2023-12-14T14:10:07.947Z,65.84
2023-12-14T14:12:37.401Z,65.73
2023-12-14T14:15:07.074Z,65.98
2023-12-14T14:17:34.016Z,66.09
2023-12-14T14:20:00.890Z,66.15
2023-12-14T14:22:27.660Z,66.15
2023-12-14T14:24:54.272Z,66.14
2023-12-14T14:27:23.951Z,65.99
2023-12-14T14:29:56.809Z,66.41
2023-12-14T14:32:23.845Z,66.23
2023-12-14T14:34:50.837Z,66.43
2023-12-14T14:37:17.680Z,66.69
2023-12-14T14:39:44.453Z,66.58
2023-12-14T14:42:11.282Z,66.48
2023-12-14T14:45:00.032Z,66.76
2023-12-14T14:47:27.666Z,66.48
2023-12-14T14:49:57.962Z,66.60
2023-12-14T14:52:26.885Z,66.17
2023-12-14T14:54:55.890Z,65.60
2023-12-14T14:57:22.550Z,65.53
2023-12-14T14:59:51.393Z,64.94
2023-12-14T15:02:18.173Z,64.70
2023-12-14T15:04:45.019Z,64.62
2023-12-14T15:07:11.655Z,64.52
2023-12-14T15:09:40.851Z,64.38
2023-12-14T15:12:07.777Z,64.10
2023-12-14T15:14:34.516Z,64.17
2023-12-14T15:17:03.433Z,63.70
2023-12-14T15:19:30.093Z,63.91
2023-12-14T15:21:56.812Z,64.12
2023-12-14T15:24:23.639Z,63.80
2023-12-14T15:26:52.565Z,64.01
2023-12-14T15:29:22.544Z,64.21
2023-12-14T15:31:50.493Z,63.99
2023-12-14T15:34:19.610Z,63.61
2023-12-14T15:36:51.083Z,63.40
2023-12-14T15:39:18.530Z,63.13
2023-12-14T15:41:45.162Z,62.29
2023-12-14T15:44:16.590Z,61.71
2023-12-14T15:46:43.306Z,61.51
2023-12-14T15:49:12.445Z,61.55
2023-12-14T15:51:42.126Z,61.24
2023-12-14T15:54:08.772Z,61.04
2023-12-14T15:56:37.860Z,61.27
2023-12-14T15:59:05.253Z,61.05
2023-12-14T16:01:32.025Z,60.88
2023-12-14T16:03:58.698Z,60.83
2023-12-14T16:06:27.800Z,60.86
2023-12-14T16:08:54.418Z,60.34
2023-12-14T16:11:21.147Z,60.24
2023-12-14T16:13:49.642Z,60.14
2023-12-14T16:16:16.494Z,60.03
2023-12-14T16:18:43.079Z,60.17
2023-12-14T16:21:10.647Z,60.45
2023-12-14T16:23:38.769Z,60.33
2023-12-14T16:26:08.910Z,60.69
2023-12-14T16:28:35.633Z,60.83
2023-12-14T16:31:06.446Z,60.93
2023-12-14T16:33:34.118Z,61.45
2023-12-14T16:36:00.994Z,61.33
2023-12-14T16:38:27.641Z,61.43
2023-12-14T16:40:56.673Z,61.66
2023-12-14T16:43:23.695Z,61.84
2023-12-14T16:45:55.065Z,61.69
2023-12-14T16:48:24.830Z,62.07
2023-12-14T16:50:54.671Z,62.00
2023-12-14T16:53:22.501Z,62.22
2023-12-14T16:55:51.779Z,62.41
2023-12-14T16:58:20.753Z,62.89
2023-12-14T17:00:49.961Z,63.26
2023-12-14T17:03:16.686Z,63.58
2023-12-14T17:05:45.621Z,63.87
2023-12-14T17:08:12.347Z,64.52
2023-12-14T17:10:41.209Z,64.65
2023-12-14T17:13:07.866Z,64.92
2023-12-14T17:15:34.501Z,65.39
2023-12-14T17:18:01.274Z,65.90
2023-12-14T17:20:30.622Z,65.89
2023-12-14T17:22:57.443Z,66.12
2023-12-14T17:25:24.163Z,66.12
2023-12-14T17:27:50.935Z,66.79
2023-12-14T17:30:17.721Z,67.34
2023-12-14T17:32:44.468Z,67.97
2023-12-14T17:35:11.369Z,67.51
2023-12-14T17:37:40.350Z,67.66
2023-12-14T17:40:07.694Z,67.44
2023-12-14T17:42:36.720Z,67.43
2023-12-14T17:45:04.388Z,68.02
2023-12-14T17:47:31.197Z,68.46
2023-12-14T17:49:58.095Z,68.20
2023-12-14T17:52:27.033Z,68.05
2023-12-14T17:54:55.933Z,68.33
2023-12-14T17:57:22.647Z,68.09
2023-12-14T17:59:49.406Z,68.25
2023-12-14T18:02:16.087Z,68.22
2023-12-14T18:04:44.952Z,68.15
2023-12-14T18:07:11.742Z,68.24
2023-12-14T18:09:38.548Z,68.24
2023-12-14T18:12:05.605Z,68.25
2023-12-14T18:14:32.276Z,68.09
2023-12-14T18:16:58.992Z,69.65
2023-12-14T18:19:29.777Z,69.27
2023-12-14T18:21:59.082Z,69.65
2023-12-14T18:24:30.509Z,69.88
2023-12-14T18:26:57.164Z,69.84
2023-12-14T18:29:26.314Z,69.89
2023-12-14T18:31:56.012Z,70.18
2023-12-14T18:34:25.408Z,70.00
2023-12-14T18:36:52.191Z,70.00
2023-12-14T18:39:21.096Z,69.85
2023-12-14T18:41:51.626Z,69.81
2023-12-14T18:44:21.397Z,69.76
2023-12-14T18:46:50.299Z,69.56
2023-12-14T18:49:19.319Z,69.81
2023-12-14T18:51:48.155Z,69.68
2023-12-14T18:54:15.157Z,69.62
2023-12-14T18:56:41.895Z,70.04
2023-12-14T18:59:10.972Z,69.76
2023-12-14T19:01:37.681Z,69.90
2023-12-14T19:04:04.630Z,70.13
2023-12-14T19:06:31.241Z,70.24
2023-12-14T19:08:58.178Z,70.37
2023-12-14T19:11:25.330Z,70.09
2023-12-14T19:13:54.505Z,70.54
2023-12-14T19:16:26.668Z,70.54
2023-12-14T19:18:55.326Z,70.46
2023-12-14T19:21:25.027Z,70.28
2023-12-14T19:23:52.786Z,70.18
2023-12-14T19:26:20.894Z,70.28
2023-12-14T19:28:53.681Z,70.65
2023-12-14T19:31:23.839Z,70.21
2023-12-14T19:33:53.041Z,70.44
2023-12-14T19:36:20.250Z,70.69
2023-12-14T19:38:52.681Z,70.74
2023-12-14T19:41:19.405Z,70.33
2023-12-14T19:43:46.176Z,70.24
2023-12-14T19:46:16.538Z,70.72
2023-12-14T19:48:46.423Z,70.72
2023-12-14T19:51:15.412Z,70.24
2023-12-14T19:53:42.091Z,70.63
2023-12-14T19:56:11.012Z,70.85
2023-12-14T19:58:37.769Z,70.43
2023-12-14T20:01:07.167Z,70.69
2023-12-14T20:03:36.579Z,70.42
2023-12-14T20:06:05.251Z,70.45
2023-12-14T20:08:32.204Z,70.89
2023-12-14T20:10:58.958Z,70.43
2023-12-14T20:13:28.708Z,70.38
2023-12-14T20:15:57.784Z,70.89
2023-12-14T20:18:24.523Z,70.76
2023-12-14T20:20:52.243Z,70.96
2023-12-14T20:23:18.988Z,70.74
2023-12-14T20:25:45.766Z,70.95
2023-12-14T20:28:12.421Z,70.73
2023-12-14T20:30:39.213Z,70.98
2023-12-14T20:33:06.186Z,70.66
2023-12-14T20:35:37.379Z,70.73
2023-12-14T20:38:08.490Z,70.60
2023-12-14T20:40:37.730Z,70.80
2023-12-14T20:43:04.496Z,70.77
2023-12-14T20:45:31.489Z,70.74
2023-12-14T20:47:58.236Z,70.79
2023-12-14T20:50:25.009Z,70.64
2023-12-14T20:52:51.649Z,71.10
2023-12-14T20:55:18.441Z,70.98
2023-12-14T20:57:45.123Z,71.21
2023-12-14T21:00:12.078Z,70.92
2023-12-14T21:02:39.509Z,71.12
2023-12-14T21:05:07.555Z,70.91
2023-12-14T21:07:37.016Z,70.89
2023-12-14T21:10:04.368Z,70.75
2023-12-14T21:12:31.612Z,71.49
2023-12-14T21:14:58.294Z,71.30
2023-12-14T21:17:27.390Z,71.33
2023-12-14T21:19:54.657Z,71.26
2023-12-14T21:22:21.526Z,71.17
2023-12-14T21:24:50.374Z,71.53
2023-12-14T21:27:35.935Z,71.13
2023-12-14T21:30:02.833Z,71.63
2023-12-14T21:32:29.601Z,71.22
2023-12-14T21:34:56.343Z,71.61
2023-12-14T21:37:25.256Z,71.43
2023-12-14T21:39:52.017Z,71.56
2023-12-14T21:42:20.837Z,71.56
2023-12-14T21:44:49.911Z,71.56
2023-12-14T21:47:16.773Z,71.52
2023-12-14T21:49:43.465Z,71.47
2023-12-14T21:52:17.385Z,71.79
2023-12-14T21:54:46.363Z,72.02
2023-12-14T21:57:13.005Z,71.62
2023-12-14T21:59:39.737Z,71.50
2023-12-14T22:02:06.663Z,71.59
2023-12-14T22:04:33.320Z,71.56
2023-12-14T22:07:01.164Z,71.75
2023-12-14T22:09:30.328Z,71.86
2023-12-14T22:11:57.019Z,72.11
2023-12-14T22:14:23.805Z,71.52
2023-12-14T22:16:51.714Z,71.91
2023-12-14T22:19:20.818Z,72.09
2023-12-14T22:21:47.512Z,71.75
2023-12-14T22:24:14.166Z,71.96
2023-12-14T22:26:40.881Z,72.05
2023-12-14T22:29:07.808Z,72.29
2023-12-14T22:31:34.609Z,71.70
2023-12-14T22:34:01.612Z,71.99
2023-12-14T22:36:28.444Z,72.13
2023-12-14T22:39:06.442Z,72.38
2023-12-14T22:41:35.657Z,72.56
2023-12-14T22:44:02.408Z,71.94
2023-12-14T22:46:29.108Z,71.96
2023-12-14T22:48:55.842Z,72.17
2023-12-14T22:51:22.926Z,72.13
2023-12-14T22:53:49.671Z,71.86
2023-12-14T22:56:23.762Z,71.86
2023-12-14T22:58:51.374Z,72.31
2023-12-14T23:01:36.998Z,72.54
2023-12-14T23:04:05.163Z,72.33
2023-12-14T23:06:35.661Z,72.45
2023-12-14T23:09:03.296Z,72.35
2023-12-14T23:11:31.130Z,72.49
2023-12-14T23:13:58.925Z,72.63
2023-12-14T23:16:25.930Z,72.44
2023-12-14T23:18:54.847Z,72.47
2023-12-14T23:21:21.674Z,72.17
2023-12-14T23:23:50.381Z,72.74
2023-12-14T23:26:17.110Z,72.79
2023-12-14T23:28:43.823Z,72.59
2023-12-14T23:31:10.591Z,72.41
2023-12-14T23:33:39.593Z,72.81
2023-12-14T23:36:06.834Z,72.79
2023-12-14T23:38:33.535Z,72.36
2023-12-14T23:41:02.482Z,72.70
2023-12-14T23:43:29.364Z,72.94
2023-12-14T23:45:58.413Z,72.83
2023-12-14T23:48:25.142Z,72.68
2023-12-14T23:50:51.844Z,72.42
2023-12-14T23:53:18.530Z,72.86
2023-12-14T23:55:45.239Z,72.60
2023-12-14T23:58:11.928Z,73.02
